sensor_id;sensor_type;location;lat;lon;timestamp;temperature;humidity
5792;DHT22;2922;53.482;10.006;2023-02-07T00:01:23;-2.00;99.90
5792;DHT22;2922;53.482;10.006;2023-02-07T00:03:50;-2.00;99.90
5792;DHT22;2922;53.482;10.006;2023-02-07T00:06:24;-2.00;99.90
5792;DHT22;2922;53.482;10.006;2023-02-07T00:08:51;-2.10;99.90
5792;DHT22;2922;53.482;10.006;2023-02-07T00:11:18;-2.10;99.90
5792;DHT22;2922;53.482;10.006;2023-02-07T00:13:46;-2.10;99.90
5792;DHT22;2922;53.482;10.006;2023-02-07T00:16:12;-2.10;99.90
5792;DHT22;2922;53.482;10.006;2023-02-07T00:18:38;-2.10;99.90
5792;DHT22;2922;53.482;10.006;2023-02-07T00:21:10;-2.20;99.90
5792;DHT22;2922;53.482;10.006;2023-02-07T00:23:36;-2.20;99.90
5792;DHT22;2922;53.482;10.006;2023-02-07T00:26:03;-2.20;99.90
5792;DHT22;2922;53.482;10.006;2023-02-07T00:28:29;-2.20;99.90
5792;DHT22;2922;53.482;10.006;2023-02-07T00:31:06;-2.20;99.90
5792;DHT22;2922;53.482;10.006;2023-02-07T00:33:33;-2.20;99.90
5792;DHT22;2922;53.482;10.006;2023-02-07T00:36:00;-2.20;99.90
5792;DHT22;2922;53.482;10.006;2023-02-07T00:38:27;-2.20;99.90
5792;DHT22;2922;53.482;10.006;2023-02-07T00:40:53;-2.30;99.90
5792;DHT22;2922;53.482;10.006;2023-02-07T00:43:18;-2.30;99.90
5792;DHT22;2922;53.482;10.006;2023-02-07T00:45:44;-2.30;99.90
5792;DHT22;2922;53.482;10.006;2023-02-07T00:48:09;-2.30;99.90
5792;DHT22;2922;53.482;10.006;2023-02-07T00:50:35;-2.30;99.90
5792;DHT22;2922;53.482;10.006;2023-02-07T00:53:01;-2.30;99.90
5792;DHT22;2922;53.482;10.006;2023-02-07T00:55:27;-2.30;99.90
5792;DHT22;2922;53.482;10.006;2023-02-07T00:57:52;-2.40;99.90
5792;DHT22;2922;53.482;10.006;2023-02-07T01:00:18;-2.40;99.90
5792;DHT22;2922;53.482;10.006;2023-02-07T01:02:43;-2.40;99.90
5792;DHT22;2922;53.482;10.006;2023-02-07T01:05:09;-2.40;99.90
5792;DHT22;2922;53.482;10.006;2023-02-07T01:07:34;-2.40;99.90
5792;DHT22;2922;53.482;10.006;2023-02-07T01:10:00;-2.40;99.90
5792;DHT22;2922;53.482;10.006;2023-02-07T01:12:26;-2.40;99.90
5792;DHT22;2922;53.482;10.006;2023-02-07T01:14:52;-2.50;99.90
5792;DHT22;2922;53.482;10.006;2023-02-07T01:17:17;-2.50;99.90
5792;DHT22;2922;53.482;10.006;2023-02-07T01:19:43;-2.50;99.90
5792;DHT22;2922;53.482;10.006;2023-02-07T01:22:08;-2.50;99.90
5792;DHT22;2922;53.482;10.006;2023-02-07T01:24:34;-2.50;99.90
5792;DHT22;2922;53.482;10.006;2023-02-07T01:27:00;-2.50;99.90
5792;DHT22;2922;53.482;10.006;2023-02-07T01:29:26;-2.60;99.90
5792;DHT22;2922;53.482;10.006;2023-02-07T01:31:51;-2.60;99.90
5792;DHT22;2922;53.482;10.006;2023-02-07T01:34:18;-2.60;99.90
5792;DHT22;2922;53.482;10.006;2023-02-07T01:36:43;-2.60;99.90
5792;DHT22;2922;53.482;10.006;2023-02-07T01:39:09;-2.60;99.90
5792;DHT22;2922;53.482;10.006;2023-02-07T01:41:35;-2.60;99.90
5792;DHT22;2922;53.482;10.006;2023-02-07T01:46:47;-2.60;99.90
5792;DHT22;2922;53.482;10.006;2023-02-07T01:49:14;-2.70;99.90
5792;DHT22;2922;53.482;10.006;2023-02-07T01:51:45;-2.70;99.90
5792;DHT22;2922;53.482;10.006;2023-02-07T01:54:12;-2.70;99.90
5792;DHT22;2922;53.482;10.006;2023-02-07T01:56:41;-2.70;99.90
5792;DHT22;2922;53.482;10.006;2023-02-07T01:59:07;-2.70;99.90
5792;DHT22;2922;53.482;10.006;2023-02-07T02:01:34;-2.70;99.90
5792;DHT22;2922;53.482;10.006;2023-02-07T02:04:00;-2.80;99.90
5792;DHT22;2922;53.482;10.006;2023-02-07T02:06:28;-2.80;99.90
5792;DHT22;2922;53.482;10.006;2023-02-07T02:08:57;-2.80;99.90
5792;DHT22;2922;53.482;10.006;2023-02-07T02:14:24;-2.80;99.90
5792;DHT22;2922;53.482;10.006;2023-02-07T02:33:13;-2.90;99.90
5792;DHT22;2922;53.482;10.006;2023-02-07T02:36:02;-2.90;99.90
5792;DHT22;2922;53.482;10.006;2023-02-07T02:38:34;-2.90;99.90
5792;DHT22;2922;53.482;10.006;2023-02-07T02:41:16;-2.90;99.90
5792;DHT22;2922;53.482;10.006;2023-02-07T02:44:01;-2.90;99.90
5792;DHT22;2922;53.482;10.006;2023-02-07T02:46:36;-3.00;99.90
5792;DHT22;2922;53.482;10.006;2023-02-07T02:49:04;-3.00;99.90
5792;DHT22;2922;53.482;10.006;2023-02-07T02:51:32;-3.00;99.90
5792;DHT22;2922;53.482;10.006;2023-02-07T02:53:58;-3.00;99.90
5792;DHT22;2922;53.482;10.006;2023-02-07T03:02:01;-3.00;99.90
5792;DHT22;2922;53.482;10.006;2023-02-07T03:07:32;-3.00;99.90
5792;DHT22;2922;53.482;10.006;2023-02-07T03:10:06;-3.10;99.90
5792;DHT22;2922;53.482;10.006;2023-02-07T03:18:14;-3.10;99.90
5792;DHT22;2922;53.482;10.006;2023-02-07T03:20:49;-3.10;99.90
5792;DHT22;2922;53.482;10.006;2023-02-07T03:23:17;-3.10;99.90
5792;DHT22;2922;53.482;10.006;2023-02-07T03:25:44;-3.10;99.90
5792;DHT22;2922;53.482;10.006;2023-02-07T03:28:12;-3.10;99.90
5792;DHT22;2922;53.482;10.006;2023-02-07T03:30:40;-3.10;99.90
5792;DHT22;2922;53.482;10.006;2023-02-07T03:33:10;-3.20;99.90
5792;DHT22;2922;53.482;10.006;2023-02-07T03:38:26;-3.20;99.90
5792;DHT22;2922;53.482;10.006;2023-02-07T03:40:57;-3.20;99.90
5792;DHT22;2922;53.482;10.006;2023-02-07T03:43:27;-3.20;99.90
5792;DHT22;2922;53.482;10.006;2023-02-07T03:45:54;-3.20;99.90
5792;DHT22;2922;53.482;10.006;2023-02-07T03:48:20;-3.20;99.90
5792;DHT22;2922;53.482;10.006;2023-02-07T03:50:45;-3.20;99.90
5792;DHT22;2922;53.482;10.006;2023-02-07T03:53:12;-3.20;99.90
5792;DHT22;2922;53.482;10.006;2023-02-07T03:55:38;-3.20;99.90
5792;DHT22;2922;53.482;10.006;2023-02-07T03:58:03;-3.20;99.90
5792;DHT22;2922;53.482;10.006;2023-02-07T04:00:31;-3.20;99.90
5792;DHT22;2922;53.482;10.006;2023-02-07T04:02:57;-3.20;99.90
5792;DHT22;2922;53.482;10.006;2023-02-07T04:05:22;-3.10;99.90
5792;DHT22;2922;53.482;10.006;2023-02-07T04:07:48;-3.10;99.90
5792;DHT22;2922;53.482;10.006;2023-02-07T04:10:14;-3.10;99.90
5792;DHT22;2922;53.482;10.006;2023-02-07T04:12:39;-3.10;99.90
5792;DHT22;2922;53.482;10.006;2023-02-07T04:15:06;-3.10;99.90
5792;DHT22;2922;53.482;10.006;2023-02-07T04:17:31;-3.10;99.90
5792;DHT22;2922;53.482;10.006;2023-02-07T04:19:57;-3.20;99.90
5792;DHT22;2922;53.482;10.006;2023-02-07T04:22:23;-3.20;99.90
5792;DHT22;2922;53.482;10.006;2023-02-07T04:24:49;-3.20;99.90
5792;DHT22;2922;53.482;10.006;2023-02-07T04:27:14;-3.20;99.90
5792;DHT22;2922;53.482;10.006;2023-02-07T04:29:40;-3.30;99.90
5792;DHT22;2922;53.482;10.006;2023-02-07T04:32:05;-3.30;99.90
5792;DHT22;2922;53.482;10.006;2023-02-07T04:34:31;-3.30;99.90
5792;DHT22;2922;53.482;10.006;2023-02-07T04:36:56;-3.30;99.90
5792;DHT22;2922;53.482;10.006;2023-02-07T04:39:22;-3.30;99.90
5792;DHT22;2922;53.482;10.006;2023-02-07T04:41:48;-3.40;99.90
5792;DHT22;2922;53.482;10.006;2023-02-07T04:44:13;-3.40;99.90
5792;DHT22;2922;53.482;10.006;2023-02-07T04:46:39;-3.40;99.90
5792;DHT22;2922;53.482;10.006;2023-02-07T04:49:04;-3.40;99.90
5792;DHT22;2922;53.482;10.006;2023-02-07T04:51:30;-3.40;99.90
5792;DHT22;2922;53.482;10.006;2023-02-07T04:53:57;-3.40;99.90
5792;DHT22;2922;53.482;10.006;2023-02-07T04:56:23;-3.50;99.90
5792;DHT22;2922;53.482;10.006;2023-02-07T04:58:49;-3.50;99.90
5792;DHT22;2922;53.482;10.006;2023-02-07T05:01:14;-3.50;99.90
5792;DHT22;2922;53.482;10.006;2023-02-07T05:03:40;-3.50;99.90
5792;DHT22;2922;53.482;10.006;2023-02-07T05:06:05;-3.50;99.90
5792;DHT22;2922;53.482;10.006;2023-02-07T05:08:31;-3.60;99.90
5792;DHT22;2922;53.482;10.006;2023-02-07T05:10:57;-3.60;99.90
5792;DHT22;2922;53.482;10.006;2023-02-07T05:13:24;-3.60;99.90
5792;DHT22;2922;53.482;10.006;2023-02-07T05:15:50;-3.60;99.90
5792;DHT22;2922;53.482;10.006;2023-02-07T05:18:15;-3.60;99.90
5792;DHT22;2922;53.482;10.006;2023-02-07T05:20:41;-3.70;99.90
5792;DHT22;2922;53.482;10.006;2023-02-07T05:23:07;-3.70;99.90
5792;DHT22;2922;53.482;10.006;2023-02-07T05:25:32;-3.70;99.90
5792;DHT22;2922;53.482;10.006;2023-02-07T05:27:59;-3.80;99.90
5792;DHT22;2922;53.482;10.006;2023-02-07T05:30:24;-3.80;99.90
5792;DHT22;2922;53.482;10.006;2023-02-07T05:32:50;-3.80;99.90
5792;DHT22;2922;53.482;10.006;2023-02-07T05:37:59;-3.80;99.90
5792;DHT22;2922;53.482;10.006;2023-02-07T05:40:25;-3.80;99.90
5792;DHT22;2922;53.482;10.006;2023-02-07T05:42:52;-3.80;99.90
5792;DHT22;2922;53.482;10.006;2023-02-07T05:45:18;-3.80;99.90
5792;DHT22;2922;53.482;10.006;2023-02-07T05:47:43;-3.80;99.90
5792;DHT22;2922;53.482;10.006;2023-02-07T05:50:09;-3.80;99.90
5792;DHT22;2922;53.482;10.006;2023-02-07T05:52:35;-3.80;99.90
5792;DHT22;2922;53.482;10.006;2023-02-07T05:55:00;-3.80;99.90
5792;DHT22;2922;53.482;10.006;2023-02-07T05:57:26;-3.80;99.90
5792;DHT22;2922;53.482;10.006;2023-02-07T05:59:52;-3.80;99.90
5792;DHT22;2922;53.482;10.006;2023-02-07T06:02:17;-3.80;99.90
5792;DHT22;2922;53.482;10.006;2023-02-07T06:04:43;-3.80;99.90
5792;DHT22;2922;53.482;10.006;2023-02-07T06:07:08;-3.80;99.90
5792;DHT22;2922;53.482;10.006;2023-02-07T06:09:34;-3.90;99.90
5792;DHT22;2922;53.482;10.006;2023-02-07T06:12:00;-3.90;99.90
5792;DHT22;2922;53.482;10.006;2023-02-07T06:14:25;-3.90;99.90
5792;DHT22;2922;53.482;10.006;2023-02-07T06:16:51;-3.90;99.90
5792;DHT22;2922;53.482;10.006;2023-02-07T06:19:17;-3.90;99.90
5792;DHT22;2922;53.482;10.006;2023-02-07T06:21:42;-3.90;99.90
5792;DHT22;2922;53.482;10.006;2023-02-07T06:24:08;-3.90;99.90
5792;DHT22;2922;53.482;10.006;2023-02-07T06:26:34;-3.90;99.90
5792;DHT22;2922;53.482;10.006;2023-02-07T06:28:59;-3.90;99.90
5792;DHT22;2922;53.482;10.006;2023-02-07T06:31:25;-4.00;99.90
5792;DHT22;2922;53.482;10.006;2023-02-07T06:33:51;-4.00;99.90
5792;DHT22;2922;53.482;10.006;2023-02-07T06:36:17;-3.90;99.90
5792;DHT22;2922;53.482;10.006;2023-02-07T06:38:42;-4.00;99.90
5792;DHT22;2922;53.482;10.006;2023-02-07T06:41:08;-4.00;99.90
5792;DHT22;2922;53.482;10.006;2023-02-07T06:43:36;-4.00;99.90
5792;DHT22;2922;53.482;10.006;2023-02-07T06:46:02;-4.00;99.90
5792;DHT22;2922;53.482;10.006;2023-02-07T06:48:28;-4.00;99.90
5792;DHT22;2922;53.482;10.006;2023-02-07T06:50:53;-4.00;99.90
5792;DHT22;2922;53.482;10.006;2023-02-07T06:53:19;-4.00;99.90
5792;DHT22;2922;53.482;10.006;2023-02-07T06:55:44;-4.00;99.90
5792;DHT22;2922;53.482;10.006;2023-02-07T06:58:10;-4.00;99.90
5792;DHT22;2922;53.482;10.006;2023-02-07T07:00:36;-4.00;99.90
5792;DHT22;2922;53.482;10.006;2023-02-07T07:03:02;-4.00;99.90
5792;DHT22;2922;53.482;10.006;2023-02-07T07:05:28;-3.90;99.90
5792;DHT22;2922;53.482;10.006;2023-02-07T07:07:54;-4.00;99.90
5792;DHT22;2922;53.482;10.006;2023-02-07T07:10:20;-4.00;99.90
5792;DHT22;2922;53.482;10.006;2023-02-07T07:12:46;-3.90;99.90
5792;DHT22;2922;53.482;10.006;2023-02-07T07:15:12;-3.70;99.90
5792;DHT22;2922;53.482;10.006;2023-02-07T07:17:38;-3.70;99.90
5792;DHT22;2922;53.482;10.006;2023-02-07T07:20:04;-3.60;99.90
5792;DHT22;2922;53.482;10.006;2023-02-07T07:22:32;-3.60;99.90
5792;DHT22;2922;53.482;10.006;2023-02-07T07:24:57;-3.70;99.90
5792;DHT22;2922;53.482;10.006;2023-02-07T07:27:23;-3.70;99.90
5792;DHT22;2922;53.482;10.006;2023-02-07T07:29:48;-3.70;99.90
5792;DHT22;2922;53.482;10.006;2023-02-07T07:32:14;-3.70;99.90
5792;DHT22;2922;53.482;10.006;2023-02-07T07:34:40;-3.70;99.90
5792;DHT22;2922;53.482;10.006;2023-02-07T07:37:06;-3.70;99.90
5792;DHT22;2922;53.482;10.006;2023-02-07T07:39:32;-3.70;99.90
5792;DHT22;2922;53.482;10.006;2023-02-07T07:41:57;-3.70;99.90
5792;DHT22;2922;53.482;10.006;2023-02-07T07:44:23;-3.70;99.90
5792;DHT22;2922;53.482;10.006;2023-02-07T07:46:48;-3.60;99.90
5792;DHT22;2922;53.482;10.006;2023-02-07T07:49:15;-3.60;99.90
5792;DHT22;2922;53.482;10.006;2023-02-07T07:51:40;-3.50;99.90
5792;DHT22;2922;53.482;10.006;2023-02-07T07:54:06;-3.50;99.90
5792;DHT22;2922;53.482;10.006;2023-02-07T07:56:32;-3.50;99.90
5792;DHT22;2922;53.482;10.006;2023-02-07T07:59:00;-3.40;99.90
5792;DHT22;2922;53.482;10.006;2023-02-07T08:01:26;-3.30;99.90
5792;DHT22;2922;53.482;10.006;2023-02-07T08:03:51;-3.20;99.90
5792;DHT22;2922;53.482;10.006;2023-02-07T08:06:17;-3.10;99.90
5792;DHT22;2922;53.482;10.006;2023-02-07T08:08:43;-3.00;99.90
5792;DHT22;2922;53.482;10.006;2023-02-07T08:11:09;-2.90;99.90
5792;DHT22;2922;53.482;10.006;2023-02-07T08:13:36;-2.80;99.90
5792;DHT22;2922;53.482;10.006;2023-02-07T08:16:03;-2.70;99.90
5792;DHT22;2922;53.482;10.006;2023-02-07T08:18:29;-2.60;99.90
5792;DHT22;2922;53.482;10.006;2023-02-07T08:20:54;-2.50;99.90
5792;DHT22;2922;53.482;10.006;2023-02-07T08:23:21;-2.40;99.90
5792;DHT22;2922;53.482;10.006;2023-02-07T08:25:47;-2.30;99.90
5792;DHT22;2922;53.482;10.006;2023-02-07T08:28:14;-2.20;99.90
5792;DHT22;2922;53.482;10.006;2023-02-07T08:30:40;-2.10;99.90
5792;DHT22;2922;53.482;10.006;2023-02-07T08:33:06;-2.10;99.90
5792;DHT22;2922;53.482;10.006;2023-02-07T08:35:32;-2.00;99.90
5792;DHT22;2922;53.482;10.006;2023-02-07T08:37:57;-1.90;99.90
5792;DHT22;2922;53.482;10.006;2023-02-07T08:40:24;-1.90;99.90
5792;DHT22;2922;53.482;10.006;2023-02-07T08:42:50;-1.80;99.90
5792;DHT22;2922;53.482;10.006;2023-02-07T08:45:16;-1.70;99.90
5792;DHT22;2922;53.482;10.006;2023-02-07T08:47:43;-1.70;99.90
5792;DHT22;2922;53.482;10.006;2023-02-07T08:50:09;-1.60;99.90
5792;DHT22;2922;53.482;10.006;2023-02-07T08:52:35;-1.60;99.90
5792;DHT22;2922;53.482;10.006;2023-02-07T08:55:05;-1.70;99.90
5792;DHT22;2922;53.482;10.006;2023-02-07T08:57:30;-1.70;99.90
5792;DHT22;2922;53.482;10.006;2023-02-07T08:59:56;-1.70;99.90
5792;DHT22;2922;53.482;10.006;2023-02-07T09:02:22;-1.80;99.90
5792;DHT22;2922;53.482;10.006;2023-02-07T09:04:48;-1.70;99.90
5792;DHT22;2922;53.482;10.006;2023-02-07T09:07:14;-1.70;99.90
5792;DHT22;2922;53.482;10.006;2023-02-07T09:09:39;-1.70;99.90
5792;DHT22;2922;53.482;10.006;2023-02-07T09:12:05;-1.70;99.90
5792;DHT22;2922;53.482;10.006;2023-02-07T09:14:32;-1.80;99.90
5792;DHT22;2922;53.482;10.006;2023-02-07T09:16:57;-1.80;99.90
5792;DHT22;2922;53.482;10.006;2023-02-07T09:19:23;-1.80;99.90
5792;DHT22;2922;53.482;10.006;2023-02-07T09:21:49;-1.80;99.90
5792;DHT22;2922;53.482;10.006;2023-02-07T09:24:14;-1.70;99.90
5792;DHT22;2922;53.482;10.006;2023-02-07T09:26:40;-1.70;99.90
5792;DHT22;2922;53.482;10.006;2023-02-07T09:29:06;-1.70;99.90
5792;DHT22;2922;53.482;10.006;2023-02-07T09:31:33;-1.60;99.90
5792;DHT22;2922;53.482;10.006;2023-02-07T09:33:59;-1.60;99.90
5792;DHT22;2922;53.482;10.006;2023-02-07T09:36:26;-1.60;99.90
5792;DHT22;2922;53.482;10.006;2023-02-07T09:38:53;-1.50;99.90
5792;DHT22;2922;53.482;10.006;2023-02-07T09:42:09;-1.40;99.90
5792;DHT22;2922;53.482;10.006;2023-02-07T09:44:46;-1.30;99.90
5792;DHT22;2922;53.482;10.006;2023-02-07T09:47:17;-1.20;99.90
5792;DHT22;2922;53.482;10.006;2023-02-07T09:49:59;-1.10;99.90
5792;DHT22;2922;53.482;10.006;2023-02-07T09:52:32;-1.10;99.90
5792;DHT22;2922;53.482;10.006;2023-02-07T09:55:00;-1.10;99.90
5792;DHT22;2922;53.482;10.006;2023-02-07T09:57:35;-1.00;99.90
5792;DHT22;2922;53.482;10.006;2023-02-07T10:03:04;-0.90;99.90
5792;DHT22;2922;53.482;10.006;2023-02-07T10:05:58;-0.90;99.90
5792;DHT22;2922;53.482;10.006;2023-02-07T10:08:24;-0.90;99.90
5792;DHT22;2922;53.482;10.006;2023-02-07T10:13:59;-0.70;99.90
5792;DHT22;2922;53.482;10.006;2023-02-07T10:22:26;-0.40;99.90
5792;DHT22;2922;53.482;10.006;2023-02-07T10:30:29;-0.20;99.90
5792;DHT22;2922;53.482;10.006;2023-02-07T10:33:04;-0.20;99.90
5792;DHT22;2922;53.482;10.006;2023-02-07T10:35:34;-0.20;99.90
5792;DHT22;2922;53.482;10.006;2023-02-07T10:43:47;0.10;99.90
5792;DHT22;2922;53.482;10.006;2023-02-07T10:46:15;0.20;99.90
5792;DHT22;2922;53.482;10.006;2023-02-07T10:48:45;0.20;99.90
5792;DHT22;2922;53.482;10.006;2023-02-07T10:51:28;0.30;99.90
5792;DHT22;2922;53.482;10.006;2023-02-07T10:54:04;0.40;99.90
5792;DHT22;2922;53.482;10.006;2023-02-07T10:56:34;0.50;99.90
5792;DHT22;2922;53.482;10.006;2023-02-07T10:59:02;0.60;99.90
5792;DHT22;2922;53.482;10.006;2023-02-07T11:01:30;0.60;99.90
5792;DHT22;2922;53.482;10.006;2023-02-07T11:03:57;0.50;99.90
5792;DHT22;2922;53.482;10.006;2023-02-07T11:06:27;0.50;99.90
5792;DHT22;2922;53.482;10.006;2023-02-07T11:09:16;0.40;99.90
5792;DHT22;2922;53.482;10.006;2023-02-07T11:11:50;0.40;99.90
5792;DHT22;2922;53.482;10.006;2023-02-07T11:14:19;0.40;99.90
5792;DHT22;2922;53.482;10.006;2023-02-07T11:16:51;0.40;99.90
5792;DHT22;2922;53.482;10.006;2023-02-07T11:19:20;0.60;99.90
5792;DHT22;2922;53.482;10.006;2023-02-07T11:21:48;0.70;99.90
5792;DHT22;2922;53.482;10.006;2023-02-07T11:24:29;0.80;99.90
5792;DHT22;2922;53.482;10.006;2023-02-07T11:27:12;0.90;99.90
5792;DHT22;2922;53.482;10.006;2023-02-07T11:29:47;1.00;99.90
5792;DHT22;2922;53.482;10.006;2023-02-07T11:32:15;1.10;99.90
5792;DHT22;2922;53.482;10.006;2023-02-07T11:34:48;1.10;99.90
5792;DHT22;2922;53.482;10.006;2023-02-07T11:37:25;1.10;99.90
5792;DHT22;2922;53.482;10.006;2023-02-07T11:39:53;1.10;99.90
5792;DHT22;2922;53.482;10.006;2023-02-07T11:42:22;1.20;99.90
5792;DHT22;2922;53.482;10.006;2023-02-07T11:44:49;1.30;99.90
5792;DHT22;2922;53.482;10.006;2023-02-07T11:47:25;1.30;99.90
5792;DHT22;2922;53.482;10.006;2023-02-07T11:50:00;1.40;99.90
5792;DHT22;2922;53.482;10.006;2023-02-07T11:52:30;1.50;99.90
5792;DHT22;2922;53.482;10.006;2023-02-07T11:55:00;1.70;99.90
5792;DHT22;2922;53.482;10.006;2023-02-07T11:57:31;1.80;99.90
5792;DHT22;2922;53.482;10.006;2023-02-07T12:00:23;1.80;99.90
5792;DHT22;2922;53.482;10.006;2023-02-07T12:03:08;1.80;99.90
5792;DHT22;2922;53.482;10.006;2023-02-07T12:05:43;1.80;99.90
5792;DHT22;2922;53.482;10.006;2023-02-07T12:08:21;1.90;99.90
5792;DHT22;2922;53.482;10.006;2023-02-07T12:10:51;2.10;99.90
5792;DHT22;2922;53.482;10.006;2023-02-07T12:13:22;2.10;99.90
5792;DHT22;2922;53.482;10.006;2023-02-07T12:21:03;2.30;99.90
5792;DHT22;2922;53.482;10.006;2023-02-07T12:23:37;2.40;99.90
5792;DHT22;2922;53.482;10.006;2023-02-07T12:26:27;2.60;99.90
5792;DHT22;2922;53.482;10.006;2023-02-07T12:37:44;2.90;99.90
5792;DHT22;2922;53.482;10.006;2023-02-07T12:40:25;3.10;99.90
5792;DHT22;2922;53.482;10.006;2023-02-07T12:51:54;3.10;99.90
5792;DHT22;2922;53.482;10.006;2023-02-07T12:54:36;3.20;99.90
5792;DHT22;2922;53.482;10.006;2023-02-07T12:57:19;3.30;99.90
5792;DHT22;2922;53.482;10.006;2023-02-07T13:00:17;3.30;99.90
5792;DHT22;2922;53.482;10.006;2023-02-07T13:05:33;3.50;99.90
5792;DHT22;2922;53.482;10.006;2023-02-07T13:11:06;3.70;99.90
5792;DHT22;2922;53.482;10.006;2023-02-07T13:18:50;3.90;99.90
5792;DHT22;2922;53.482;10.006;2023-02-07T13:21:31;4.00;99.90
5792;DHT22;2922;53.482;10.006;2023-02-07T13:24:01;4.10;99.90
5792;DHT22;2922;53.482;10.006;2023-02-07T13:26:29;4.20;99.90
5792;DHT22;2922;53.482;10.006;2023-02-07T13:29:01;4.40;99.90
5792;DHT22;2922;53.482;10.006;2023-02-07T13:31:36;4.50;99.90
5792;DHT22;2922;53.482;10.006;2023-02-07T13:34:07;4.50;99.90
5792;DHT22;2922;53.482;10.006;2023-02-07T13:36:43;4.50;99.90
5792;DHT22;2922;53.482;10.006;2023-02-07T13:41:53;4.90;99.90
5792;DHT22;2922;53.482;10.006;2023-02-07T13:55:34;5.40;99.90
5792;DHT22;2922;53.482;10.006;2023-02-07T13:58:49;5.40;99.90
5792;DHT22;2922;53.482;10.006;2023-02-07T14:01:15;5.40;99.90
5792;DHT22;2922;53.482;10.006;2023-02-07T14:03:56;5.50;99.90
5792;DHT22;2922;53.482;10.006;2023-02-07T14:06:25;5.50;99.90
5792;DHT22;2922;53.482;10.006;2023-02-07T14:12:03;5.70;99.90
5792;DHT22;2922;53.482;10.006;2023-02-07T14:14:35;5.70;99.90
5792;DHT22;2922;53.482;10.006;2023-02-07T14:17:03;5.70;99.90
5792;DHT22;2922;53.482;10.006;2023-02-07T14:27:34;5.90;99.90
5792;DHT22;2922;53.482;10.006;2023-02-07T14:30:14;6.00;99.90
5792;DHT22;2922;53.482;10.006;2023-02-07T14:33:08;5.80;99.90
5792;DHT22;2922;53.482;10.006;2023-02-07T14:36:01;5.90;99.90
5792;DHT22;2922;53.482;10.006;2023-02-07T14:38:38;5.90;99.90
5792;DHT22;2922;53.482;10.006;2023-02-07T14:41:08;5.90;99.90
5792;DHT22;2922;53.482;10.006;2023-02-07T14:43:51;6.00;99.90
5792;DHT22;2922;53.482;10.006;2023-02-07T14:46:33;6.10;99.90
5792;DHT22;2922;53.482;10.006;2023-02-07T14:49:22;6.10;99.90
5792;DHT22;2922;53.482;10.006;2023-02-07T14:51:57;6.20;99.90
5792;DHT22;2922;53.482;10.006;2023-02-07T15:02:36;6.20;99.90
5792;DHT22;2922;53.482;10.006;2023-02-07T15:05:20;6.20;99.90
5792;DHT22;2922;53.482;10.006;2023-02-07T15:07:47;6.10;99.90
5792;DHT22;2922;53.482;10.006;2023-02-07T15:10:26;6.10;99.90
5792;DHT22;2922;53.482;10.006;2023-02-07T15:12:52;6.00;99.90
5792;DHT22;2922;53.482;10.006;2023-02-07T15:15:23;5.90;99.90
5792;DHT22;2922;53.482;10.006;2023-02-07T15:17:51;5.90;99.90
5792;DHT22;2922;53.482;10.006;2023-02-07T15:20:21;5.80;99.90
5792;DHT22;2922;53.482;10.006;2023-02-07T15:22:58;5.70;99.90
5792;DHT22;2922;53.482;10.006;2023-02-07T15:25:25;5.60;99.90
5792;DHT22;2922;53.482;10.006;2023-02-07T15:28:01;5.40;99.90
5792;DHT22;2922;53.482;10.006;2023-02-07T15:30:28;5.30;99.90
5792;DHT22;2922;53.482;10.006;2023-02-07T15:33:10;5.10;99.90
5792;DHT22;2922;53.482;10.006;2023-02-07T15:35:37;5.00;99.90
5792;DHT22;2922;53.482;10.006;2023-02-07T15:38:23;4.80;99.90
5792;DHT22;2922;53.482;10.006;2023-02-07T15:40:51;4.70;99.90
5792;DHT22;2922;53.482;10.006;2023-02-07T15:43:30;4.60;99.90
5792;DHT22;2922;53.482;10.006;2023-02-07T15:46:05;4.50;99.90
5792;DHT22;2922;53.482;10.006;2023-02-07T15:48:43;4.50;99.90
5792;DHT22;2922;53.482;10.006;2023-02-07T15:51:09;4.40;99.90
5792;DHT22;2922;53.482;10.006;2023-02-07T15:53:36;4.40;99.90
5792;DHT22;2922;53.482;10.006;2023-02-07T15:56:04;4.30;99.90
5792;DHT22;2922;53.482;10.006;2023-02-07T15:58:36;4.20;99.90
5792;DHT22;2922;53.482;10.006;2023-02-07T16:01:04;4.00;99.90
5792;DHT22;2922;53.482;10.006;2023-02-07T16:03:35;3.90;99.90
5792;DHT22;2922;53.482;10.006;2023-02-07T16:06:15;3.70;99.90
5792;DHT22;2922;53.482;10.006;2023-02-07T16:08:42;3.60;99.90
5792;DHT22;2922;53.482;10.006;2023-02-07T16:16:34;3.30;99.90
5792;DHT22;2922;53.482;10.006;2023-02-07T16:21:34;3.00;99.90
5792;DHT22;2922;53.482;10.006;2023-02-07T16:24:06;3.00;99.90
5792;DHT22;2922;53.482;10.006;2023-02-07T16:26:35;3.00;99.90
5792;DHT22;2922;53.482;10.006;2023-02-07T16:29:04;2.90;99.90
5792;DHT22;2922;53.482;10.006;2023-02-07T16:31:30;2.80;99.90
5792;DHT22;2922;53.482;10.006;2023-02-07T16:33:56;2.60;99.90
5792;DHT22;2922;53.482;10.006;2023-02-07T16:36:21;2.50;99.90
5792;DHT22;2922;53.482;10.006;2023-02-07T16:38:47;2.40;99.90
5792;DHT22;2922;53.482;10.006;2023-02-07T16:43:46;2.20;99.90
5792;DHT22;2922;53.482;10.006;2023-02-07T16:46:12;2.10;99.90
5792;DHT22;2922;53.482;10.006;2023-02-07T16:48:37;2.00;99.90
5792;DHT22;2922;53.482;10.006;2023-02-07T16:51:03;1.90;99.90
5792;DHT22;2922;53.482;10.006;2023-02-07T16:53:29;1.90;99.90
5792;DHT22;2922;53.482;10.006;2023-02-07T16:55:56;1.80;99.90
5792;DHT22;2922;53.482;10.006;2023-02-07T16:58:25;1.80;99.90
5792;DHT22;2922;53.482;10.006;2023-02-07T17:00:52;1.80;99.90
5792;DHT22;2922;53.482;10.006;2023-02-07T17:03:18;1.70;99.90
5792;DHT22;2922;53.482;10.006;2023-02-07T17:05:43;1.60;99.90
5792;DHT22;2922;53.482;10.006;2023-02-07T17:08:18;1.50;99.90
5792;DHT22;2922;53.482;10.006;2023-02-07T17:10:51;1.50;99.90
5792;DHT22;2922;53.482;10.006;2023-02-07T17:13:18;1.40;99.90
5792;DHT22;2922;53.482;10.006;2023-02-07T17:15:44;1.40;99.90
5792;DHT22;2922;53.482;10.006;2023-02-07T17:18:11;1.30;99.90
5792;DHT22;2922;53.482;10.006;2023-02-07T17:20:37;1.30;99.90
5792;DHT22;2922;53.482;10.006;2023-02-07T17:23:03;1.20;99.90
5792;DHT22;2922;53.482;10.006;2023-02-07T17:25:29;1.20;99.90
5792;DHT22;2922;53.482;10.006;2023-02-07T17:27:55;1.10;99.90
5792;DHT22;2922;53.482;10.006;2023-02-07T17:30:27;1.10;99.90
5792;DHT22;2922;53.482;10.006;2023-02-07T17:32:53;1.10;99.90
5792;DHT22;2922;53.482;10.006;2023-02-07T17:35:19;1.10;99.90
5792;DHT22;2922;53.482;10.006;2023-02-07T17:37:46;1.10;99.90
5792;DHT22;2922;53.482;10.006;2023-02-07T17:40:35;1.00;99.90
5792;DHT22;2922;53.482;10.006;2023-02-07T17:43:01;1.00;99.90
5792;DHT22;2922;53.482;10.006;2023-02-07T17:45:28;1.00;99.90
5792;DHT22;2922;53.482;10.006;2023-02-07T17:47:54;0.90;99.90
5792;DHT22;2922;53.482;10.006;2023-02-07T17:50:31;0.90;99.90
5792;DHT22;2922;53.482;10.006;2023-02-07T17:52:58;0.90;99.90
5792;DHT22;2922;53.482;10.006;2023-02-07T17:55:28;0.80;99.90
5792;DHT22;2922;53.482;10.006;2023-02-07T17:57:54;0.80;99.90
5792;DHT22;2922;53.482;10.006;2023-02-07T18:00:25;0.80;99.90
5792;DHT22;2922;53.482;10.006;2023-02-07T18:02:51;0.70;99.90
5792;DHT22;2922;53.482;10.006;2023-02-07T18:05:17;0.70;99.90
5792;DHT22;2922;53.482;10.006;2023-02-07T18:07:44;0.60;99.90
5792;DHT22;2922;53.482;10.006;2023-02-07T18:10:17;0.60;99.90
5792;DHT22;2922;53.482;10.006;2023-02-07T18:12:43;0.50;99.90
5792;DHT22;2922;53.482;10.006;2023-02-07T18:15:08;0.50;99.90
5792;DHT22;2922;53.482;10.006;2023-02-07T18:17:35;0.50;99.90
5792;DHT22;2922;53.482;10.006;2023-02-07T18:20:01;0.40;99.90
5792;DHT22;2922;53.482;10.006;2023-02-07T18:22:27;0.40;99.90
5792;DHT22;2922;53.482;10.006;2023-02-07T18:24:52;0.40;99.90
5792;DHT22;2922;53.482;10.006;2023-02-07T18:27:18;0.30;99.90